sensor_id;sensor_type;location;lat;lon;timestamp;P1;durP1;ratioP1;P2;durP2;ratioP2
40433;SDS011;26146;51.114;5.654;2023-05-10T00:02:04;20.15;;;10.00;;
40433;SDS011;26146;51.114;5.654;2023-05-10T00:06:05;18.27;;;9.60;;
40433;SDS011;26146;51.114;5.654;2023-05-10T00:10:06;20.13;;;9.93;;
40433;SDS011;26146;51.114;5.654;2023-05-10T00:14:08;19.52;;;9.65;;
40433;SDS011;26146;51.114;5.654;2023-05-10T00:18:09;18.38;;;9.32;;
40433;SDS011;26146;51.114;5.654;2023-05-10T00:22:10;16.52;;;9.18;;
40433;SDS011;26146;51.114;5.654;2023-05-10T00:26:12;17.40;;;9.68;;
40433;SDS011;26146;51.114;5.654;2023-05-10T00:30:13;19.75;;;9.98;;
40433;SDS011;26146;51.114;5.654;2023-05-10T00:34:14;20.63;;;10.18;;
40433;SDS011;26146;51.114;5.654;2023-05-10T00:38:15;20.75;;;9.55;;
40433;SDS011;26146;51.114;5.654;2023-05-10T00:42:17;19.67;;;10.05;;
40433;SDS011;26146;51.114;5.654;2023-05-10T00:46:19;18.80;;;10.15;;
40433;SDS011;26146;51.114;5.654;2023-05-10T00:50:21;22.05;;;10.68;;
40433;SDS011;26146;51.114;5.654;2023-05-10T00:54:23;20.85;;;9.68;;
40433;SDS011;26146;51.114;5.654;2023-05-10T00:58:24;22.55;;;10.88;;
40433;SDS011;26146;51.114;5.654;2023-05-10T01:02:28;21.45;;;10.25;;
40433;SDS011;26146;51.114;5.654;2023-05-10T01:06:30;22.77;;;10.77;;
40433;SDS011;26146;51.114;5.654;2023-05-10T01:10:31;23.73;;;11.45;;
40433;SDS011;26146;51.114;5.654;2023-05-10T01:14:33;24.27;;;11.77;;
40433;SDS011;26146;51.114;5.654;2023-05-10T01:18:37;24.20;;;12.20;;
40433;SDS011;26146;51.114;5.654;2023-05-10T01:40:39;25.25;;;12.57;;
40433;SDS011;26146;51.114;5.654;2023-05-10T01:49:29;23.13;;;12.15;;
40433;SDS011;26146;51.114;5.654;2023-05-10T01:53:32;26.65;;;12.30;;
40433;SDS011;26146;51.114;5.654;2023-05-10T01:57:37;26.98;;;12.93;;
40433;SDS011;26146;51.114;5.654;2023-05-10T02:01:42;23.25;;;12.18;;
40433;SDS011;26146;51.114;5.654;2023-05-10T02:05:45;23.80;;;12.43;;
40433;SDS011;26146;51.114;5.654;2023-05-10T02:09:48;23.95;;;12.38;;
40433;SDS011;26146;51.114;5.654;2023-05-10T02:13:50;22.15;;;11.93;;
40433;SDS011;26146;51.114;5.654;2023-05-10T02:17:54;24.60;;;12.23;;
40433;SDS011;26146;51.114;5.654;2023-05-10T02:21:56;23.23;;;11.80;;
40433;SDS011;26146;51.114;5.654;2023-05-10T02:25:59;23.52;;;11.52;;
40433;SDS011;26146;51.114;5.654;2023-05-10T02:30:02;22.95;;;11.15;;
40433;SDS011;26146;51.114;5.654;2023-05-10T02:34:05;18.48;;;10.73;;
40433;SDS011;26146;51.114;5.654;2023-05-10T02:38:08;21.27;;;10.70;;
40433;SDS011;26146;51.114;5.654;2023-05-10T02:42:12;20.95;;;9.95;;
40433;SDS011;26146;51.114;5.654;2023-05-10T02:46:18;21.58;;;10.25;;
40433;SDS011;26146;51.114;5.654;2023-05-10T02:50:19;22.02;;;10.45;;
40433;SDS011;26146;51.114;5.654;2023-05-10T02:54:24;21.35;;;10.48;;
40433;SDS011;26146;51.114;5.654;2023-05-10T02:58:30;23.08;;;10.73;;
40433;SDS011;26146;51.114;5.654;2023-05-10T03:02:31;24.88;;;11.20;;
40433;SDS011;26146;51.114;5.654;2023-05-10T03:06:33;31.30;;;12.05;;
40433;SDS011;26146;51.114;5.654;2023-05-10T03:10:37;31.08;;;12.50;;
40433;SDS011;26146;51.114;5.654;2023-05-10T03:19:12;25.67;;;11.32;;
40433;SDS011;26146;51.114;5.654;2023-05-10T03:23:52;23.42;;;11.80;;
40433;SDS011;26146;51.114;5.654;2023-05-10T03:28:00;26.80;;;11.57;;
40433;SDS011;26146;51.114;5.654;2023-05-10T03:32:04;25.08;;;11.52;;
40433;SDS011;26146;51.114;5.654;2023-05-10T03:36:05;29.20;;;12.52;;
40433;SDS011;26146;51.114;5.654;2023-05-10T03:40:07;25.25;;;12.05;;
40433;SDS011;26146;51.114;5.654;2023-05-10T03:44:09;29.67;;;12.85;;
40433;SDS011;26146;51.114;5.654;2023-05-10T03:48:10;33.60;;;13.18;;
40433;SDS011;26146;51.114;5.654;2023-05-10T03:52:13;32.08;;;13.20;;
40433;SDS011;26146;51.114;5.654;2023-05-10T03:56:15;30.38;;;12.90;;
40433;SDS011;26146;51.114;5.654;2023-05-10T04:00:16;32.38;;;13.38;;
40433;SDS011;26146;51.114;5.654;2023-05-10T04:04:17;36.25;;;14.35;;
40433;SDS011;26146;51.114;5.654;2023-05-10T04:08:21;32.67;;;13.35;;
40433;SDS011;26146;51.114;5.654;2023-05-10T04:12:22;29.75;;;12.70;;
40433;SDS011;26146;51.114;5.654;2023-05-10T04:16:23;30.35;;;13.38;;
40433;SDS011;26146;51.114;5.654;2023-05-10T04:20:24;30.63;;;13.27;;
40433;SDS011;26146;51.114;5.654;2023-05-10T04:24:26;32.65;;;12.98;;
40433;SDS011;26146;51.114;5.654;2023-05-10T04:28:27;30.63;;;12.85;;
40433;SDS011;26146;51.114;5.654;2023-05-10T04:32:28;31.35;;;12.88;;
40433;SDS011;26146;51.114;5.654;2023-05-10T04:36:29;31.67;;;13.18;;
40433;SDS011;26146;51.114;5.654;2023-05-10T04:40:32;29.00;;;13.07;;
40433;SDS011;26146;51.114;5.654;2023-05-10T04:44:34;32.08;;;13.30;;
40433;SDS011;26146;51.114;5.654;2023-05-10T04:48:36;26.88;;;12.65;;
40433;SDS011;26146;51.114;5.654;2023-05-10T04:52:37;31.48;;;13.70;;
40433;SDS011;26146;51.114;5.654;2023-05-10T04:56:41;30.52;;;13.40;;
40433;SDS011;26146;51.114;5.654;2023-05-10T05:00:42;27.80;;;13.75;;
40433;SDS011;26146;51.114;5.654;2023-05-10T05:04:44;27.23;;;12.65;;
40433;SDS011;26146;51.114;5.654;2023-05-10T05:08:46;27.67;;;13.48;;
40433;SDS011;26146;51.114;5.654;2023-05-10T05:12:47;25.48;;;13.30;;
40433;SDS011;26146;51.114;5.654;2023-05-10T05:16:48;34.63;;;14.07;;
40433;SDS011;26146;51.114;5.654;2023-05-10T05:20:49;28.45;;;13.57;;
40433;SDS011;26146;51.114;5.654;2023-05-10T05:24:51;26.30;;;13.00;;
40433;SDS011;26146;51.114;5.654;2023-05-10T05:28:52;28.65;;;13.77;;
40433;SDS011;26146;51.114;5.654;2023-05-10T05:32:54;30.05;;;13.13;;
40433;SDS011;26146;51.114;5.654;2023-05-10T05:36:55;28.90;;;13.82;;
40433;SDS011;26146;51.114;5.654;2023-05-10T05:40:57;34.55;;;14.20;;
40433;SDS011;26146;51.114;5.654;2023-05-10T05:44:58;32.95;;;15.27;;
40433;SDS011;26146;51.114;5.654;2023-05-10T05:48:59;35.80;;;15.50;;
40433;SDS011;26146;51.114;5.654;2023-05-10T05:53:00;37.58;;;16.83;;
40433;SDS011;26146;51.114;5.654;2023-05-10T05:57:02;38.70;;;16.60;;
40433;SDS011;26146;51.114;5.654;2023-05-10T06:01:03;39.35;;;17.45;;
40433;SDS011;26146;51.114;5.654;2023-05-10T06:05:04;43.58;;;17.88;;
40433;SDS011;26146;51.114;5.654;2023-05-10T06:09:06;45.92;;;19.02;;
40433;SDS011;26146;51.114;5.654;2023-05-10T06:13:07;44.65;;;18.83;;
40433;SDS011;26146;51.114;5.654;2023-05-10T06:17:08;44.20;;;19.08;;
40433;SDS011;26146;51.114;5.654;2023-05-10T06:21:10;42.50;;;19.05;;
40433;SDS011;26146;51.114;5.654;2023-05-10T06:25:11;38.95;;;18.33;;
40433;SDS011;26146;51.114;5.654;2023-05-10T06:29:12;42.45;;;18.70;;
40433;SDS011;26146;51.114;5.654;2023-05-10T06:33:15;41.30;;;19.13;;
40433;SDS011;26146;51.114;5.654;2023-05-10T06:37:16;42.80;;;17.85;;
40433;SDS011;26146;51.114;5.654;2023-05-10T06:41:17;36.70;;;17.35;;
40433;SDS011;26146;51.114;5.654;2023-05-10T06:45:19;38.15;;;17.15;;
40433;SDS011;26146;51.114;5.654;2023-05-10T06:49:20;36.42;;;16.83;;
40433;SDS011;26146;51.114;5.654;2023-05-10T06:53:21;35.28;;;16.83;;
40433;SDS011;26146;51.114;5.654;2023-05-10T06:57:22;37.70;;;17.13;;
40433;SDS011;26146;51.114;5.654;2023-05-10T07:01:23;34.95;;;17.15;;
40433;SDS011;26146;51.114;5.654;2023-05-10T07:05:24;36.03;;;16.35;;
40433;SDS011;26146;51.114;5.654;2023-05-10T07:09:28;35.00;;;16.00;;
40433;SDS011;26146;51.114;5.654;2023-05-10T07:13:32;35.60;;;16.23;;
40433;SDS011;26146;51.114;5.654;2023-05-10T07:17:34;33.72;;;15.02;;
40433;SDS011;26146;51.114;5.654;2023-05-10T07:21:35;32.90;;;15.27;;
40433;SDS011;26146;51.114;5.654;2023-05-10T07:25:37;31.45;;;15.25;;
40433;SDS011;26146;51.114;5.654;2023-05-10T07:29:40;30.63;;;14.75;;
40433;SDS011;26146;51.114;5.654;2023-05-10T07:33:41;31.13;;;14.88;;
40433;SDS011;26146;51.114;5.654;2023-05-10T07:37:42;32.55;;;14.95;;
40433;SDS011;26146;51.114;5.654;2023-05-10T07:41:43;31.88;;;15.63;;
40433;SDS011;26146;51.114;5.654;2023-05-10T07:45:44;32.92;;;15.45;;
40433;SDS011;26146;51.114;5.654;2023-05-10T07:49:45;35.05;;;15.98;;
40433;SDS011;26146;51.114;5.654;2023-05-10T07:53:46;33.67;;;14.75;;
40433;SDS011;26146;51.114;5.654;2023-05-10T07:57:47;39.85;;;15.32;;
40433;SDS011;26146;51.114;5.654;2023-05-10T08:01:49;32.35;;;14.80;;
40433;SDS011;26146;51.114;5.654;2023-05-10T08:05:50;29.55;;;13.63;;
40433;SDS011;26146;51.114;5.654;2023-05-10T08:09:51;29.40;;;14.23;;
40433;SDS011;26146;51.114;5.654;2023-05-10T08:13:52;29.08;;;13.55;;
40433;SDS011;26146;51.114;5.654;2023-05-10T08:17:53;30.17;;;14.48;;
40433;SDS011;26146;51.114;5.654;2023-05-10T08:21:54;31.88;;;14.65;;
40433;SDS011;26146;51.114;5.654;2023-05-10T08:25:56;28.90;;;14.00;;
40433;SDS011;26146;51.114;5.654;2023-05-10T08:29:57;33.55;;;14.38;;
40433;SDS011;26146;51.114;5.654;2023-05-10T08:33:58;30.38;;;14.30;;
40433;SDS011;26146;51.114;5.654;2023-05-10T08:38:00;32.67;;;14.00;;
40433;SDS011;26146;51.114;5.654;2023-05-10T08:42:03;29.27;;;14.00;;
40433;SDS011;26146;51.114;5.654;2023-05-10T08:46:05;31.20;;;14.65;;
40433;SDS011;26146;51.114;5.654;2023-05-10T08:50:09;32.30;;;15.15;;
40433;SDS011;26146;51.114;5.654;2023-05-10T08:54:14;31.20;;;14.18;;
40433;SDS011;26146;51.114;5.654;2023-05-10T08:58:16;31.42;;;15.70;;
40433;SDS011;26146;51.114;5.654;2023-05-10T09:02:18;32.78;;;16.27;;
40433;SDS011;26146;51.114;5.654;2023-05-10T09:06:20;34.55;;;15.60;;
40433;SDS011;26146;51.114;5.654;2023-05-10T09:10:21;33.17;;;14.95;;
40433;SDS011;26146;51.114;5.654;2023-05-10T09:14:26;31.17;;;14.60;;
40433;SDS011;26146;51.114;5.654;2023-05-10T09:18:27;28.23;;;13.85;;
40433;SDS011;26146;51.114;5.654;2023-05-10T09:22:28;25.98;;;12.98;;
40433;SDS011;26146;51.114;5.654;2023-05-10T09:26:31;25.35;;;12.63;;
40433;SDS011;26146;51.114;5.654;2023-05-10T09:30:32;24.17;;;13.00;;
40433;SDS011;26146;51.114;5.654;2023-05-10T09:34:33;25.02;;;12.65;;
40433;SDS011;26146;51.114;5.654;2023-05-10T09:38:45;23.05;;;12.02;;
40433;SDS011;26146;51.114;5.654;2023-05-10T09:42:55;24.23;;;12.68;;
40433;SDS011;26146;51.114;5.654;2023-05-10T09:46:56;23.70;;;12.65;;
40433;SDS011;26146;51.114;5.654;2023-05-10T09:50:57;25.20;;;12.55;;
40433;SDS011;26146;51.114;5.654;2023-05-10T09:54:58;22.45;;;11.90;;
40433;SDS011;26146;51.114;5.654;2023-05-10T09:59:03;20.90;;;11.10;;
40433;SDS011;26146;51.114;5.654;2023-05-10T10:03:04;20.60;;;10.18;;
40433;SDS011;26146;51.114;5.654;2023-05-10T10:07:05;16.77;;;8.65;;
40433;SDS011;26146;51.114;5.654;2023-05-10T10:11:06;17.27;;;8.98;;
40433;SDS011;26146;51.114;5.654;2023-05-10T10:15:08;15.23;;;8.52;;
40433;SDS011;26146;51.114;5.654;2023-05-10T10:19:10;14.55;;;7.90;;
40433;SDS011;26146;51.114;5.654;2023-05-10T10:23:11;14.02;;;7.28;;
40433;SDS011;26146;51.114;5.654;2023-05-10T10:27:19;13.57;;;7.07;;
40433;SDS011;26146;51.114;5.654;2023-05-10T10:31:46;12.02;;;6.40;;
40433;SDS011;26146;51.114;5.654;2023-05-10T10:36:06;12.57;;;6.20;;
40433;SDS011;26146;51.114;5.654;2023-05-10T10:40:27;10.48;;;5.40;;
40433;SDS011;26146;51.114;5.654;2023-05-10T10:44:34;11.02;;;5.45;;
40433;SDS011;26146;51.114;5.654;2023-05-10T10:48:39;11.75;;;5.95;;
40433;SDS011;26146;51.114;5.654;2023-05-10T10:53:10;11.40;;;5.80;;
40433;SDS011;26146;51.114;5.654;2023-05-10T10:57:12;11.80;;;6.30;;
40433;SDS011;26146;51.114;5.654;2023-05-10T11:01:19;11.25;;;5.68;;
40433;SDS011;26146;51.114;5.654;2023-05-10T11:09:41;11.45;;;6.38;;
40433;SDS011;26146;51.114;5.654;2023-05-10T11:13:43;11.50;;;6.00;;
40433;SDS011;26146;51.114;5.654;2023-05-10T11:17:49;11.88;;;6.65;;
40433;SDS011;26146;51.114;5.654;2023-05-10T11:22:13;11.88;;;6.13;;
40433;SDS011;26146;51.114;5.654;2023-05-10T11:26:14;13.23;;;7.30;;
40433;SDS011;26146;51.114;5.654;2023-05-10T11:30:15;12.75;;;7.25;;
40433;SDS011;26146;51.114;5.654;2023-05-10T11:34:23;13.10;;;7.32;;
40433;SDS011;26146;51.114;5.654;2023-05-10T11:38:27;12.43;;;7.18;;
40433;SDS011;26146;51.114;5.654;2023-05-10T11:42:28;12.85;;;7.22;;
40433;SDS011;26146;51.114;5.654;2023-05-10T11:46:30;12.70;;;7.40;;
40433;SDS011;26146;51.114;5.654;2023-05-10T11:50:31;13.27;;;6.75;;
40433;SDS011;26146;51.114;5.654;2023-05-10T11:54:33;11.55;;;6.55;;
40433;SDS011;26146;51.114;5.654;2023-05-10T11:58:35;12.52;;;7.00;;
40433;SDS011;26146;51.114;5.654;2023-05-10T12:02:38;13.45;;;7.10;;
40433;SDS011;26146;51.114;5.654;2023-05-10T12:06:39;13.55;;;7.00;;
40433;SDS011;26146;51.114;5.654;2023-05-10T12:10:41;13.02;;;6.80;;
40433;SDS011;26146;51.114;5.654;2023-05-10T12:14:42;15.90;;;7.00;;
40433;SDS011;26146;51.114;5.654;2023-05-10T12:18:44;13.20;;;7.15;;
40433;SDS011;26146;51.114;5.654;2023-05-10T12:22:55;12.68;;;5.82;;
40433;SDS011;26146;51.114;5.654;2023-05-10T12:26:57;13.18;;;6.07;;
40433;SDS011;26146;51.114;5.654;2023-05-10T12:31:01;11.52;;;5.80;;
40433;SDS011;26146;51.114;5.654;2023-05-10T12:35:03;11.45;;;6.15;;
40433;SDS011;26146;51.114;5.654;2023-05-10T12:39:04;11.25;;;5.80;;
40433;SDS011;26146;51.114;5.654;2023-05-10T12:43:05;11.70;;;5.45;;
40433;SDS011;26146;51.114;5.654;2023-05-10T12:47:06;11.18;;;5.47;;
40433;SDS011;26146;51.114;5.654;2023-05-10T12:51:08;10.32;;;5.30;;
40433;SDS011;26146;51.114;5.654;2023-05-10T12:55:13;11.05;;;5.50;;
40433;SDS011;26146;51.114;5.654;2023-05-10T12:59:14;9.77;;;4.60;;
40433;SDS011;26146;51.114;5.654;2023-05-10T13:03:15;11.00;;;4.85;;
40433;SDS011;26146;51.114;5.654;2023-05-10T13:07:16;10.90;;;5.13;;
40433;SDS011;26146;51.114;5.654;2023-05-10T13:11:17;10.73;;;5.05;;
40433;SDS011;26146;51.114;5.654;2023-05-10T13:15:20;9.95;;;4.43;;
40433;SDS011;26146;51.114;5.654;2023-05-10T13:19:21;8.10;;;4.03;;
40433;SDS011;26146;51.114;5.654;2023-05-10T13:23:22;9.98;;;4.25;;
40433;SDS011;26146;51.114;5.654;2023-05-10T13:27:23;9.38;;;4.07;;
40433;SDS011;26146;51.114;5.654;2023-05-10T13:31:24;10.30;;;4.55;;
40433;SDS011;26146;51.114;5.654;2023-05-10T13:35:25;8.38;;;3.90;;
40433;SDS011;26146;51.114;5.654;2023-05-10T13:39:26;8.70;;;3.50;;
40433;SDS011;26146;51.114;5.654;2023-05-10T13:43:28;7.47;;;3.25;;
40433;SDS011;26146;51.114;5.654;2023-05-10T13:47:29;8.38;;;3.47;;
40433;SDS011;26146;51.114;5.654;2023-05-10T13:51:31;8.02;;;3.45;;
40433;SDS011;26146;51.114;5.654;2023-05-10T13:55:32;6.85;;;2.60;;
40433;SDS011;26146;51.114;5.654;2023-05-10T13:59:34;7.60;;;2.90;;
40433;SDS011;26146;51.114;5.654;2023-05-10T14:03:35;7.53;;;3.25;;
40433;SDS011;26146;51.114;5.654;2023-05-10T14:07:36;8.95;;;3.17;;
40433;SDS011;26146;51.114;5.654;2023-05-10T14:11:37;7.60;;;3.10;;
40433;SDS011;26146;51.114;5.654;2023-05-10T14:15:42;8.23;;;2.90;;
40433;SDS011;26146;51.114;5.654;2023-05-10T14:19:43;7.68;;;2.90;;
40433;SDS011;26146;51.114;5.654;2023-05-10T14:23:44;6.53;;;2.72;;
40433;SDS011;26146;51.114;5.654;2023-05-10T14:27:45;7.07;;;2.90;;
40433;SDS011;26146;51.114;5.654;2023-05-10T14:31:46;7.65;;;2.80;;
40433;SDS011;26146;51.114;5.654;2023-05-10T14:35:47;7.50;;;2.90;;
40433;SDS011;26146;51.114;5.654;2023-05-10T14:39:48;7.50;;;2.55;;
40433;SDS011;26146;51.114;5.654;2023-05-10T14:43:49;7.38;;;2.80;;
40433;SDS011;26146;51.114;5.654;2023-05-10T14:47:50;8.27;;;2.72;;
40433;SDS011;26146;51.114;5.654;2023-05-10T14:51:51;6.97;;;2.60;;
40433;SDS011;26146;51.114;5.654;2023-05-10T14:55:53;6.63;;;2.17;;
40433;SDS011;26146;51.114;5.654;2023-05-10T14:59:54;8.48;;;2.55;;
40433;SDS011;26146;51.114;5.654;2023-05-10T15:03:55;6.35;;;2.20;;
40433;SDS011;26146;51.114;5.654;2023-05-10T15:07:56;6.93;;;2.22;;
40433;SDS011;26146;51.114;5.654;2023-05-10T15:11:57;5.43;;;1.90;;
40433;SDS011;26146;51.114;5.654;2023-05-10T15:15:58;5.85;;;1.80;;
40433;SDS011;26146;51.114;5.654;2023-05-10T15:19:59;6.05;;;2.22;;
40433;SDS011;26146;51.114;5.654;2023-05-10T15:24:03;6.15;;;1.90;;
40433;SDS011;26146;51.114;5.654;2023-05-10T15:28:05;7.50;;;1.95;;
40433;SDS011;26146;51.114;5.654;2023-05-10T15:32:06;5.88;;;2.20;;
40433;SDS011;26146;51.114;5.654;2023-05-10T15:36:07;5.82;;;2.00;;
40433;SDS011;26146;51.114;5.654;2023-05-10T15:40:08;6.25;;;1.70;;
40433;SDS011;26146;51.114;5.654;2023-05-10T15:44:10;5.45;;;1.60;;
40433;SDS011;26146;51.114;5.654;2023-05-10T15:48:11;6.30;;;1.73;;
40433;SDS011;26146;51.114;5.654;2023-05-10T15:52:12;5.80;;;1.80;;
40433;SDS011;26146;51.114;5.654;2023-05-10T15:56:13;5.97;;;1.70;;
40433;SDS011;26146;51.114;5.654;2023-05-10T16:00:14;4.43;;;1.40;;
40433;SDS011;26146;51.114;5.654;2023-05-10T16:04:17;7.15;;;1.65;;
40433;SDS011;26146;51.114;5.654;2023-05-10T16:08:18;5.45;;;1.70;;
40433;SDS011;26146;51.114;5.654;2023-05-10T16:12:19;5.40;;;1.63;;
40433;SDS011;26146;51.114;5.654;2023-05-10T16:16:20;6.95;;;2.10;;
40433;SDS011;26146;51.114;5.654;2023-05-10T16:20:21;6.32;;;2.30;;
40433;SDS011;26146;51.114;5.654;2023-05-10T16:24:23;6.15;;;1.95;;
40433;SDS011;26146;51.114;5.654;2023-05-10T16:28:25;5.22;;;1.88;;
40433;SDS011;26146;51.114;5.654;2023-05-10T16:32:26;7.07;;;2.10;;
40433;SDS011;26146;51.114;5.654;2023-05-10T16:36:27;6.13;;;2.00;;
40433;SDS011;26146;51.114;5.654;2023-05-10T16:40:29;6.35;;;2.25;;
40433;SDS011;26146;51.114;5.654;2023-05-10T16:44:30;6.00;;;2.10;;
40433;SDS011;26146;51.114;5.654;2023-05-10T16:48:31;7.03;;;2.53;;
40433;SDS011;26146;51.114;5.654;2023-05-10T16:52:33;6.82;;;2.40;;
40433;SDS011;26146;51.114;5.654;2023-05-10T16:56:35;6.50;;;2.40;;
40433;SDS011;26146;51.114;5.654;2023-05-10T17:00:36;6.15;;;2.38;;
40433;SDS011;26146;51.114;5.654;2023-05-10T17:04:37;7.00;;;2.50;;
40433;SDS011;26146;51.114;5.654;2023-05-10T17:08:38;6.28;;;2.40;;
40433;SDS011;26146;51.114;5.654;2023-05-10T17:12:39;6.32;;;2.40;;
40433;SDS011;26146;51.114;5.654;2023-05-10T17:16:41;7.00;;;2.70;;
40433;SDS011;26146;51.114;5.654;2023-05-10T17:20:42;7.97;;;2.90;;
40433;SDS011;26146;51.114;5.654;2023-05-10T17:24:44;8.15;;;2.88;;
40433;SDS011;26146;51.114;5.654;2023-05-10T17:28:45;8.40;;;2.90;;
40433;SDS011;26146;51.114;5.654;2023-05-10T17:32:46;9.02;;;3.42;;
40433;SDS011;26146;51.114;5.654;2023-05-10T17:36:48;9.40;;;3.40;;
40433;SDS011;26146;51.114;5.654;2023-05-10T17:40:49;8.07;;;3.38;;
40433;SDS011;26146;51.114;5.654;2023-05-10T17:44:51;9.98;;;3.80;;
40433;SDS011;26146;51.114;5.654;2023-05-10T17:48:52;11.05;;;4.50;;
40433;SDS011;26146;51.114;5.654;2023-05-10T17:52:53;12.40;;;5.25;;
40433;SDS011;26146;51.114;5.654;2023-05-10T17:56:54;11.35;;;5.43;;
40433;SDS011;26146;51.114;5.654;2023-05-10T18:00:57;14.23;;;6.90;;
40433;SDS011;26146;51.114;5.654;2023-05-10T18:04:58;11.32;;;6.82;;
40433;SDS011;26146;51.114;5.654;2023-05-10T18:09:00;13.43;;;6.82;;
40433;SDS011;26146;51.114;5.654;2023-05-10T18:13:02;13.02;;;7.03;;
40433;SDS011;26146;51.114;5.654;2023-05-10T18:17:04;12.65;;;7.13;;
40433;SDS011;26146;51.114;5.654;2023-05-10T18:21:05;14.10;;;7.40;;
40433;SDS011;26146;51.114;5.654;2023-05-10T18:25:06;13.90;;;7.53;;
40433;SDS011;26146;51.114;5.654;2023-05-10T18:29:08;12.82;;;7.32;;
40433;SDS011;26146;51.114;5.654;2023-05-10T18:33:09;12.05;;;6.93;;
40433;SDS011;26146;51.114;5.654;2023-05-10T18:37:11;11.95;;;6.47;;
40433;SDS011;26146;51.114;5.654;2023-05-10T18:41:12;11.90;;;6.57;;
40433;SDS011;26146;51.114;5.654;2023-05-10T18:45:13;10.77;;;5.53;;
40433;SDS011;26146;51.114;5.654;2023-05-10T18:49:15;10.57;;;5.13;;
40433;SDS011;26146;51.114;5.654;2023-05-10T18:53:16;10.98;;;5.70;;
40433;SDS011;26146;51.114;5.654;2023-05-10T18:57:17;9.90;;;5.32;;
40433;SDS011;26146;51.114;5.654;2023-05-10T19:01:20;10.43;;;5.00;;
40433;SDS011;26146;51.114;5.654;2023-05-10T19:05:21;9.00;;;4.40;;
40433;SDS011;26146;51.114;5.654;2023-05-10T19:09:29;8.02;;;4.10;;
40433;SDS011;26146;51.114;5.654;2023-05-10T19:13:30;9.63;;;4.60;;
40433;SDS011;26146;51.114;5.654;2023-05-10T19:17:32;9.65;;;4.82;;
40433;SDS011;26146;51.114;5.654;2023-05-10T19:21:35;9.30;;;4.50;;
40433;SDS011;26146;51.114;5.654;2023-05-10T19:25:36;10.10;;;4.78;;
40433;SDS011;26146;51.114;5.654;2023-05-10T19:29:38;10.48;;;5.15;;
40433;SDS011;26146;51.114;5.654;2023-05-10T19:33:39;9.90;;;5.22;;
40433;SDS011;26146;51.114;5.654;2023-05-10T19:37:40;9.25;;;4.25;;
40433;SDS011;26146;51.114;5.654;2023-05-10T19:41:46;8.30;;;4.10;;
40433;SDS011;26146;51.114;5.654;2023-05-10T19:45:48;8.20;;;3.90;;
40433;SDS011;26146;51.114;5.654;2023-05-10T19:49:49;8.23;;;4.07;;
40433;SDS011;26146;51.114;5.654;2023-05-10T19:53:50;7.97;;;3.95;;
40433;SDS011;26146;51.114;5.654;2023-05-10T19:57:52;8.07;;;4.07;;
40433;SDS011;26146;51.114;5.654;2023-05-10T20:01:53;8.80;;;4.70;;
40433;SDS011;26146;51.114;5.654;2023-05-10T20:05:54;9.90;;;4.28;;
40433;SDS011;26146;51.114;5.654;2023-05-10T20:09:55;10.57;;;4.80;;
40433;SDS011;26146;51.114;5.654;2023-05-10T20:13:56;9.02;;;4.68;;
40433;SDS011;26146;51.114;5.654;2023-05-10T20:17:58;8.35;;;4.28;;
40433;SDS011;26146;51.114;5.654;2023-05-10T20:21:59;9.05;;;4.85;;
40433;SDS011;26146;51.114;5.654;2023-05-10T20:26:00;9.48;;;4.90;;
40433;SDS011;26146;51.114;5.654;2023-05-10T20:30:02;9.82;;;5.10;;
40433;SDS011;26146;51.114;5.654;2023-05-10T20:34:04;10.23;;;5.47;;
40433;SDS011;26146;51.114;5.654;2023-05-10T20:38:05;10.13;;;5.50;;
40433;SDS011;26146;51.114;5.654;2023-05-10T20:42:09;10.88;;;6.20;;
40433;SDS011;26146;51.114;5.654;2023-05-10T20:46:10;10.63;;;6.10;;
40433;SDS011;26146;51.114;5.654;2023-05-10T20:50:11;11.68;;;6.40;;
40433;SDS011;26146;51.114;5.654;2023-05-10T20:54:12;12.15;;;6.47;;
40433;SDS011;26146;51.114;5.654;2023-05-10T20:58:13;11.73;;;6.38;;
40433;SDS011;26146;51.114;5.654;2023-05-10T21:02:14;12.13;;;6.60;;
40433;SDS011;26146;51.114;5.654;2023-05-10T21:06:16;12.52;;;6.57;;
40433;SDS011;26146;51.114;5.654;2023-05-10T21:10:17;13.20;;;7.25;;
40433;SDS011;26146;51.114;5.654;2023-05-10T21:14:19;13.88;;;6.95;;
40433;SDS011;26146;51.114;5.654;2023-05-10T21:18:20;14.32;;;7.70;;
40433;SDS011;26146;51.114;5.654;2023-05-10T21:22:21;14.18;;;7.93;;
40433;SDS011;26146;51.114;5.654;2023-05-10T21:26:22;13.95;;;8.00;;
40433;SDS011;26146;51.114;5.654;2023-05-10T21:30:23;15.45;;;8.82;;
40433;SDS011;26146;51.114;5.654;2023-05-10T21:34:24;14.98;;;8.10;;
40433;SDS011;26146;51.114;5.654;2023-05-10T21:38:26;14.55;;;8.15;;
40433;SDS011;26146;51.114;5.654;2023-05-10T21:42:28;14.38;;;8.10;;
40433;SDS011;26146;51.114;5.654;2023-05-10T21:46:30;16.77;;;8.70;;
40433;SDS011;26146;51.114;5.654;2023-05-10T21:50:31;16.40;;;8.77;;
40433;SDS011;26146;51.114;5.654;2023-05-10T21:54:32;17.25;;;8.95;;
40433;SDS011;26146;51.114;5.654;2023-05-10T21:58:33;15.80;;;8.90;;
40433;SDS011;26146;51.114;5.654;2023-05-10T22:02:34;20.02;;;9.38;;
40433;SDS011;26146;51.114;5.654;2023-05-10T22:06:35;19.15;;;9.73;;
40433;SDS011;26146;51.114;5.654;2023-05-10T22:10:37;19.13;;;9.88;;
40433;SDS011;26146;51.114;5.654;2023-05-10T22:14:38;18.85;;;10.10;;
40433;SDS011;26146;51.114;5.654;2023-05-10T22:18:39;17.63;;;9.85;;
40433;SDS011;26146;51.114;5.654;2023-05-10T22:22:40;17.58;;;9.57;;
40433;SDS011;26146;51.114;5.654;2023-05-10T22:26:41;20.33;;;10.38;;
40433;SDS011;26146;51.114;5.654;2023-05-10T22:30:42;20.27;;;10.20;;
40433;SDS011;26146;51.114;5.654;2023-05-10T22:34:43;19.67;;;10.27;;
40433;SDS011;26146;51.114;5.654;2023-05-10T22:38:44;18.20;;;9.60;;
40433;SDS011;26146;51.114;5.654;2023-05-10T22:42:45;18.45;;;9.82;;
40433;SDS011;26146;51.114;5.654;2023-05-10T22:46:47;20.08;;;10.38;;
40433;SDS011;26146;51.114;5.654;2023-05-10T22:50:48;21.05;;;10.40;;
40433;SDS011;26146;51.114;5.654;2023-05-10T22:54:49;17.73;;;9.27;;
40433;SDS011;26146;51.114;5.654;2023-05-10T22:58:50;20.38;;;10.10;;
40433;SDS011;26146;51.114;5.654;2023-05-10T23:02:51;19.83;;;10.27;;
40433;SDS011;26146;51.114;5.654;2023-05-10T23:06:52;20.70;;;10.02;;
40433;SDS011;26146;51.114;5.654;2023-05-10T23:10:56;19.95;;;10.73;;
40433;SDS011;26146;51.114;5.654;2023-05-10T23:14:57;21.50;;;11.93;;
40433;SDS011;26146;51.114;5.654;2023-05-10T23:18:59;22.65;;;12.00;;
40433;SDS011;26146;51.114;5.654;2023-05-10T23:23:00;21.48;;;11.57;;
40433;SDS011;26146;51.114;5.654;2023-05-10T23:27:01;22.02;;;12.05;;
40433;SDS011;26146;51.114;5.654;2023-05-10T23:31:03;23.08;;;12.88;;
40433;SDS011;26146;51.114;5.654;2023-05-10T23:35:04;22.70;;;12.52;;
40433;SDS011;26146;51.114;5.654;2023-05-10T23:39:05;21.77;;;12.35;;
40433;SDS011;26146;51.114;5.654;2023-05-10T23:43:07;22.10;;;12.45;;
40433;SDS011;26146;51.114;5.654;2023-05-10T23:47:08;24.85;;;12.98;;
40433;SDS011;26146;51.114;5.654;2023-05-10T23:51:09;23.95;;;12.30;;
40433;SDS011;26146;51.114;5.654;2023-05-10T23:55:10;23.15;;;12.52;;
40433;SDS011;26146;51.114;5.654;2023-05-10T23:59:11;26.40;;;13.02;;
